createdAt,value
2023-05-19T00:00:40.527Z,2.10
2023-05-19T00:03:09.219Z,2.17
2023-05-19T00:05:40.845Z,2.03
2023-05-19T00:08:11.205Z,2.00
2023-05-19T00:10:39.898Z,2.03
2023-05-19T00:13:08.426Z,2.37
2023-05-19T00:15:36.766Z,1.90
2023-05-19T00:18:04.448Z,2.20
2023-05-19T00:20:32.344Z,2.00
2023-05-19T00:22:59.998Z,2.20
2023-05-19T00:25:27.881Z,2.00
2023-05-19T00:27:55.343Z,2.13
2023-05-19T00:30:23.019Z,2.10
2023-05-19T00:32:50.732Z,2.27
2023-05-19T00:35:18.505Z,2.20
2023-05-19T00:37:46.712Z,2.40
2023-05-19T00:40:14.477Z,2.23
2023-05-19T00:42:42.512Z,2.50
2023-05-19T00:45:13.409Z,2.00
2023-05-19T00:47:41.475Z,2.33
2023-05-19T00:50:09.623Z,2.07
2023-05-19T00:52:37.179Z,2.67
2023-05-19T00:55:05.182Z,2.70
2023-05-19T00:57:32.692Z,2.37
2023-05-19T01:00:00.324Z,2.30
2023-05-19T01:02:29.815Z,1.97
2023-05-19T01:04:58.101Z,2.20
2023-05-19T01:07:25.975Z,2.67
2023-05-19T01:09:53.899Z,2.23
2023-05-19T01:12:21.506Z,2.27
2023-05-19T01:14:49.675Z,2.43
2023-05-19T01:17:34.404Z,2.30
2023-05-19T01:20:16.812Z,2.60
2023-05-19T01:23:07.420Z,2.70
2023-05-19T01:26:00.918Z,2.47
2023-05-19T01:29:23.077Z,2.13
2023-05-19T01:31:51.229Z,2.37
2023-05-19T01:34:21.564Z,1.97
2023-05-19T01:36:51.133Z,2.50
2023-05-19T01:39:20.804Z,2.70
2023-05-19T01:41:49.328Z,2.43
2023-05-19T01:44:16.939Z,2.20
2023-05-19T01:46:45.658Z,2.30
2023-05-19T01:49:14.635Z,2.53
2023-05-19T01:51:42.310Z,2.53
2023-05-19T01:54:09.878Z,2.63
2023-05-19T01:57:00.689Z,2.53
2023-05-19T02:00:07.954Z,2.47
2023-05-19T02:03:07.908Z,2.37
2023-05-19T02:06:00.280Z,2.30
2023-05-19T02:08:31.055Z,2.20
2023-05-19T02:11:07.420Z,2.30
2023-05-19T02:13:39.731Z,2.70
2023-05-19T02:16:08.470Z,2.40
2023-05-19T02:18:35.997Z,2.37
2023-05-19T02:21:03.942Z,2.67
2023-05-19T02:23:31.760Z,2.57
2023-05-19T02:25:59.215Z,2.77
2023-05-19T02:28:28.519Z,2.90
2023-05-19T02:30:56.073Z,2.93
2023-05-19T02:33:26.207Z,2.50
2023-05-19T02:35:54.057Z,2.57
2023-05-19T02:38:24.563Z,2.60
2023-05-19T02:40:53.849Z,2.73
2023-05-19T02:43:21.348Z,2.90
2023-05-19T02:45:48.805Z,2.80
2023-05-19T02:48:16.280Z,2.60
2023-05-19T02:50:43.822Z,2.70
2023-05-19T02:53:11.382Z,2.83
2023-05-19T02:55:39.032Z,2.30
2023-05-19T02:58:06.685Z,3.00
2023-05-19T03:00:34.396Z,2.50
2023-05-19T03:03:03.031Z,2.73
2023-05-19T03:05:32.015Z,2.90
2023-05-19T03:07:59.619Z,2.80
2023-05-19T03:10:27.173Z,2.77
2023-05-19T03:12:58.106Z,2.67
2023-05-19T03:15:28.606Z,3.20
2023-05-19T03:17:56.564Z,2.50
2023-05-19T03:20:24.663Z,2.73
2023-05-19T03:22:52.482Z,2.83
2023-05-19T03:25:20.112Z,3.00
2023-05-19T03:27:47.692Z,3.17
2023-05-19T03:30:15.516Z,3.73
2023-05-19T03:32:58.013Z,2.80
2023-05-19T03:35:25.700Z,2.97
2023-05-19T03:37:53.189Z,2.40
2023-05-19T03:40:21.788Z,2.83
2023-05-19T03:42:50.567Z,2.90
2023-05-19T03:45:18.105Z,2.67
2023-05-19T03:47:49.258Z,3.00
2023-05-19T03:50:34.721Z,2.80
2023-05-19T03:53:12.982Z,2.97
2023-05-19T03:55:42.097Z,2.80
2023-05-19T03:58:10.710Z,3.10
2023-05-19T04:00:42.078Z,3.00
2023-05-19T04:03:09.808Z,3.27
2023-05-19T04:05:37.471Z,3.33
2023-05-19T04:08:05.117Z,3.30
2023-05-19T04:10:32.886Z,3.30
2023-05-19T04:13:00.727Z,3.10
2023-05-19T04:15:28.469Z,3.30
2023-05-19T04:17:56.639Z,3.57
2023-05-19T04:20:24.163Z,3.57
2023-05-19T04:22:51.763Z,3.30
2023-05-19T04:25:20.305Z,3.43
2023-05-19T04:27:48.825Z,3.67
2023-05-19T04:30:22.479Z,3.60
2023-05-19T04:32:52.708Z,2.87
2023-05-19T04:35:20.465Z,3.73
2023-05-19T04:37:48.775Z,3.43
2023-05-19T04:40:23.853Z,3.20
2023-05-19T04:42:52.896Z,3.63
2023-05-19T04:45:21.210Z,3.20
2023-05-19T04:47:52.778Z,4.23
2023-05-19T04:50:23.817Z,3.37
2023-05-19T04:52:51.834Z,2.97
2023-05-19T04:55:19.791Z,3.50
2023-05-19T04:57:48.992Z,3.53
2023-05-19T05:00:17.049Z,3.80
2023-05-19T05:02:57.653Z,4.30
2023-05-19T05:05:27.254Z,4.37
2023-05-19T05:07:54.967Z,3.50
2023-05-19T05:10:27.097Z,3.30
2023-05-19T05:12:55.533Z,3.80
2023-05-19T05:15:24.442Z,3.93
2023-05-19T05:17:52.994Z,4.23
2023-05-19T05:20:22.642Z,3.73
2023-05-19T05:22:50.588Z,4.10
2023-05-19T05:25:19.116Z,4.23
2023-05-19T05:27:46.949Z,4.33
2023-05-19T05:30:15.063Z,4.30
2023-05-19T05:32:43.328Z,4.50
2023-05-19T05:35:26.045Z,4.57
2023-05-19T05:37:54.142Z,3.93
2023-05-19T05:40:24.853Z,4.63
2023-05-19T05:42:55.632Z,4.10
2023-05-19T05:45:24.738Z,4.33
2023-05-19T05:47:53.599Z,4.30
2023-05-19T05:50:22.296Z,3.90
2023-05-19T05:52:52.701Z,4.77
2023-05-19T05:55:21.137Z,4.77
2023-05-19T05:57:50.659Z,5.10
2023-05-19T06:00:19.478Z,4.33
2023-05-19T06:02:52.460Z,4.30
2023-05-19T06:05:21.048Z,4.90
2023-05-19T06:07:49.632Z,4.53
2023-05-19T06:10:26.479Z,4.47
2023-05-19T06:12:55.570Z,4.33
2023-05-19T06:15:25.706Z,4.37
2023-05-19T06:18:03.894Z,4.30
2023-05-19T06:20:31.813Z,4.93
2023-05-19T06:23:19.579Z,4.60
2023-05-19T06:25:47.257Z,4.93
2023-05-19T06:28:14.989Z,4.60
2023-05-19T06:30:42.642Z,5.07
2023-05-19T06:33:34.778Z,5.27
2023-05-19T06:36:02.348Z,5.30
2023-05-19T06:38:31.577Z,5.17
2023-05-19T06:40:59.878Z,5.03
2023-05-19T06:43:27.506Z,5.27
2023-05-19T06:46:02.484Z,5.70
2023-05-19T06:48:34.032Z,5.67
2023-05-19T06:51:01.654Z,5.20
2023-05-19T06:53:29.219Z,5.30
2023-05-19T06:55:59.482Z,5.03
2023-05-19T06:58:31.863Z,5.83
2023-05-19T07:01:00.709Z,5.83
2023-05-19T07:03:33.651Z,6.03
2023-05-19T07:06:01.492Z,6.27
2023-05-19T07:08:29.868Z,5.43
2023-05-19T07:11:00.437Z,5.67
2023-05-19T07:13:29.273Z,5.90
2023-05-19T07:15:57.432Z,5.40
2023-05-19T07:18:26.344Z,5.70
2023-05-19T07:20:54.112Z,5.70
2023-05-19T07:23:21.996Z,6.10
2023-05-19T07:25:49.714Z,6.13
2023-05-19T07:28:19.510Z,5.60
2023-05-19T07:30:47.726Z,5.73
2023-05-19T07:33:15.346Z,5.73
2023-05-19T07:35:44.539Z,5.63
2023-05-19T07:38:12.308Z,6.00
2023-05-19T07:40:39.915Z,5.63
2023-05-19T07:43:07.433Z,6.03
2023-05-19T07:45:35.050Z,6.10
2023-05-19T07:48:05.725Z,6.10
2023-05-19T07:50:33.395Z,6.30
2023-05-19T07:53:01.308Z,7.17
2023-05-19T07:55:28.908Z,5.90
2023-05-19T07:57:57.363Z,6.07
2023-05-19T08:00:25.098Z,6.23
2023-05-19T08:02:53.391Z,6.60
2023-05-19T08:05:21.080Z,5.88
2023-05-19T08:07:48.826Z,5.88
2023-05-19T08:10:16.448Z,5.70
2023-05-19T08:12:44.276Z,6.22
2023-05-19T08:15:12.083Z,6.55
2023-05-19T08:17:39.771Z,5.97
2023-05-19T08:20:10.132Z,6.07
2023-05-19T08:22:37.713Z,6.35
2023-05-19T08:25:06.371Z,6.18
2023-05-19T08:27:34.037Z,6.55
2023-05-19T08:30:05.666Z,6.15
2023-05-19T08:32:34.708Z,6.55
2023-05-19T08:35:02.267Z,5.82
2023-05-19T08:37:31.425Z,5.32
2023-05-19T08:40:00.314Z,6.30
2023-05-19T08:42:29.377Z,6.05
2023-05-19T08:44:57.003Z,6.65
2023-05-19T08:47:24.818Z,6.35
2023-05-19T08:50:07.908Z,5.80
2023-05-19T08:53:31.726Z,5.80
2023-05-19T08:56:13.319Z,6.13
2023-05-19T08:58:43.999Z,6.30
2023-05-19T09:01:18.350Z,6.50
2023-05-19T09:03:49.581Z,6.22
2023-05-19T09:06:17.414Z,6.50
2023-05-19T09:08:45.348Z,6.45
2023-05-19T09:11:13.344Z,6.63
2023-05-19T09:13:41.389Z,6.82
2023-05-19T09:16:09.295Z,7.07
2023-05-19T09:18:42.616Z,7.65
2023-05-19T09:21:11.310Z,6.28
2023-05-19T09:23:38.859Z,6.50
2023-05-19T09:26:07.910Z,6.80
2023-05-19T09:28:38.031Z,7.78
2023-05-19T09:31:10.496Z,6.50
2023-05-19T09:33:45.808Z,7.10
2023-05-19T09:36:14.669Z,6.50
2023-05-19T09:38:42.636Z,7.53
2023-05-19T09:41:10.299Z,6.70
2023-05-19T09:43:37.930Z,7.07
2023-05-19T09:46:12.907Z,6.53
2023-05-19T09:48:42.633Z,6.60
2023-05-19T09:51:10.779Z,6.57
2023-05-19T09:53:39.208Z,7.35
2023-05-19T09:56:10.049Z,7.07
2023-05-19T09:58:39.122Z,7.45
2023-05-19T10:01:07.684Z,7.10
2023-05-19T10:03:35.502Z,7.20
2023-05-19T10:06:05.578Z,6.57
2023-05-19T10:08:36.319Z,7.20
2023-05-19T10:11:04.344Z,6.45
2023-05-19T10:13:32.821Z,6.75
2023-05-19T10:16:01.361Z,6.60
2023-05-19T10:18:32.313Z,6.88
2023-05-19T10:21:01.409Z,6.72
2023-05-19T10:23:29.021Z,5.63
2023-05-19T10:25:59.593Z,5.80
2023-05-19T10:28:38.138Z,5.68
2023-05-19T10:31:11.649Z,5.70
2023-05-19T10:34:19.268Z,15.35
2023-05-19T10:37:15.021Z,5.60
2023-05-19T10:39:44.943Z,5.68
2023-05-19T10:42:38.581Z,4.90
2023-05-19T10:45:18.907Z,5.70
2023-05-19T10:47:46.960Z,5.10
2023-05-19T10:50:14.736Z,5.63
2023-05-19T10:52:45.610Z,5.03
2023-05-19T10:55:18.039Z,5.43
2023-05-19T10:57:58.543Z,5.55
2023-05-19T11:00:31.356Z,5.28
2023-05-19T11:03:18.621Z,5.03
2023-05-19T11:05:46.561Z,4.85
2023-05-19T11:08:14.230Z,4.85
2023-05-19T11:10:46.421Z,4.97
2023-05-19T11:13:22.614Z,4.72
2023-05-19T11:15:50.775Z,4.93
2023-05-19T11:18:21.288Z,4.88
2023-05-19T11:20:58.334Z,5.43
2023-05-19T11:23:27.137Z,4.55
2023-05-19T11:25:54.689Z,4.80
2023-05-19T11:28:26.712Z,9.07
2023-05-19T11:31:00.098Z,4.60
2023-05-19T11:33:28.237Z,4.70
2023-05-19T11:35:58.488Z,5.55
2023-05-19T11:38:29.283Z,5.30
2023-05-19T11:40:57.415Z,5.32
2023-05-19T11:43:26.480Z,4.18
2023-05-19T11:45:56.005Z,4.75
2023-05-19T11:48:24.859Z,4.95
2023-05-19T11:50:52.624Z,5.60
2023-05-19T11:53:21.706Z,4.65
2023-05-19T11:55:50.020Z,4.63
2023-05-19T11:58:18.203Z,3.83
2023-05-19T12:00:47.717Z,5.25
2023-05-19T12:03:15.743Z,6.13
2023-05-19T12:05:49.391Z,4.03
2023-05-19T12:08:20.195Z,4.57
2023-05-19T12:10:52.201Z,4.30
2023-05-19T12:13:23.511Z,4.45
2023-05-19T12:15:53.533Z,4.50
2023-05-19T12:18:21.441Z,4.32
2023-05-19T12:20:49.406Z,5.32
2023-05-19T12:23:17.158Z,5.03
2023-05-19T12:25:44.763Z,5.10
2023-05-19T12:28:12.265Z,4.68
2023-05-19T12:30:40.062Z,4.60
2023-05-19T12:33:09.847Z,4.40
2023-05-19T12:35:38.473Z,4.78
2023-05-19T12:38:07.736Z,4.47
2023-05-19T12:40:37.537Z,5.00
2023-05-19T12:43:06.896Z,4.70
2023-05-19T12:45:38.676Z,4.32
2023-05-19T12:48:12.507Z,4.60
2023-05-19T12:50:40.204Z,4.25
2023-05-19T12:53:15.290Z,4.38
2023-05-19T12:55:45.970Z,5.07
2023-05-19T12:58:16.313Z,4.75
2023-05-19T13:00:47.444Z,4.85
2023-05-19T13:03:20.651Z,4.50
2023-05-19T13:05:50.876Z,4.85
2023-05-19T13:08:21.791Z,4.05
2023-05-19T13:10:49.776Z,4.80
2023-05-19T13:13:17.497Z,4.60
2023-05-19T13:15:48.967Z,6.70
2023-05-19T13:18:17.481Z,4.60
2023-05-19T13:20:47.201Z,4.90
2023-05-19T13:23:15.968Z,4.95
2023-05-19T13:25:43.810Z,5.47
2023-05-19T13:28:11.659Z,4.90
2023-05-19T13:30:41.937Z,4.50
2023-05-19T13:33:09.662Z,4.97
2023-05-19T13:35:37.923Z,4.45
2023-05-19T13:38:08.185Z,5.07
2023-05-19T13:40:36.877Z,4.60
2023-05-19T13:43:05.177Z,4.95
2023-05-19T13:45:32.787Z,5.07
2023-05-19T13:48:00.695Z,4.60
2023-05-19T13:50:28.271Z,4.65
2023-05-19T13:52:56.301Z,4.55
2023-05-19T13:55:23.885Z,4.68
2023-05-19T13:57:51.363Z,5.43
2023-05-19T14:00:20.049Z,5.13
2023-05-19T14:02:47.950Z,5.40
2023-05-19T14:05:15.677Z,5.32
2023-05-19T14:07:44.582Z,5.28
2023-05-19T14:10:12.340Z,4.68
2023-05-19T14:12:52.825Z,4.60
2023-05-19T14:15:29.290Z,4.93
2023-05-19T14:17:56.965Z,4.65
2023-05-19T14:20:24.400Z,5.13
2023-05-19T14:22:55.635Z,5.05
2023-05-19T14:25:23.171Z,4.50
2023-05-19T14:27:50.710Z,4.78
2023-05-19T14:30:18.255Z,4.72
2023-05-19T14:32:45.779Z,4.97
2023-05-19T14:35:13.904Z,5.00
2023-05-19T14:37:41.386Z,4.85
2023-05-19T14:40:12.275Z,5.28
2023-05-19T14:42:39.701Z,4.45
2023-05-19T14:45:07.939Z,4.22
2023-05-19T14:47:35.508Z,4.72
2023-05-19T14:50:03.116Z,3.50
2023-05-19T14:52:30.622Z,3.90
2023-05-19T14:54:58.100Z,3.70
2023-05-19T14:57:26.939Z,3.58
2023-05-19T14:59:54.412Z,4.30
2023-05-19T15:02:21.991Z,4.30
2023-05-19T15:04:49.484Z,4.60
2023-05-19T15:07:22.510Z,4.45
2023-05-19T15:09:50.045Z,4.50
2023-05-19T15:12:17.500Z,4.25
2023-05-19T15:14:45.177Z,4.07
2023-05-19T15:17:12.918Z,4.22
2023-05-19T15:19:43.260Z,4.93
2023-05-19T15:22:11.010Z,4.00
2023-05-19T15:24:38.620Z,3.40
2023-05-19T15:27:06.339Z,2.92
2023-05-19T15:29:35.322Z,3.92
2023-05-19T15:32:03.609Z,3.70
2023-05-19T15:34:31.255Z,3.88
2023-05-19T15:36:59.769Z,3.63
2023-05-19T15:39:27.236Z,3.28
2023-05-19T15:41:54.719Z,2.97
2023-05-19T15:44:26.068Z,3.25
2023-05-19T15:46:55.235Z,3.75
2023-05-19T15:49:23.746Z,3.25
2023-05-19T15:51:51.481Z,3.30
2023-05-19T15:54:19.673Z,3.60
2023-05-19T15:56:47.216Z,3.25
2023-05-19T15:59:14.673Z,3.35
2023-05-19T16:01:42.341Z,3.20
2023-05-19T16:04:10.008Z,3.60
2023-05-19T16:06:40.492Z,3.35
2023-05-19T16:09:08.237Z,16.60
2023-05-19T16:11:35.794Z,8.18
2023-05-19T16:14:06.911Z,4.53
2023-05-19T16:16:34.486Z,10.07
2023-05-19T16:19:02.655Z,23.10
2023-05-19T16:21:30.179Z,5.13
2023-05-19T16:23:57.733Z,5.00
2023-05-19T16:26:25.253Z,4.22
2023-05-19T16:28:55.967Z,4.45
2023-05-19T16:31:23.528Z,4.82
2023-05-19T16:33:51.043Z,5.43
2023-05-19T16:36:18.618Z,16.88
2023-05-19T16:38:46.168Z,12.50
2023-05-19T16:41:13.728Z,15.60
2023-05-19T16:43:41.851Z,6.50
2023-05-19T16:46:12.381Z,4.53
2023-05-19T16:48:41.418Z,5.18
2023-05-19T16:51:09.514Z,4.40
2023-05-19T16:53:47.958Z,5.13
2023-05-19T16:56:15.457Z,5.65
2023-05-19T16:58:44.672Z,4.25
2023-05-19T17:01:12.749Z,4.10
2023-05-19T17:03:43.627Z,4.20
2023-05-19T17:06:11.209Z,3.58
2023-05-19T17:08:39.715Z,4.88
2023-05-19T17:11:07.196Z,6.57
2023-05-19T17:13:36.721Z,6.93
2023-05-19T17:16:04.438Z,6.97
2023-05-19T17:18:34.070Z,6.50
2023-05-19T17:21:06.405Z,7.17
2023-05-19T17:23:35.987Z,7.25
2023-05-19T17:26:07.194Z,6.18
2023-05-19T17:28:34.784Z,7.20
2023-05-19T17:31:09.279Z,6.75
2023-05-19T17:33:37.607Z,5.75
2023-05-19T17:36:08.095Z,5.60
2023-05-19T17:38:40.199Z,4.40
2023-05-19T17:41:30.815Z,4.28
2023-05-19T17:43:58.759Z,4.20
2023-05-19T17:46:34.636Z,4.53
2023-05-19T17:49:02.760Z,5.17
2023-05-19T17:51:32.240Z,4.40
2023-05-19T17:54:00.977Z,5.10
2023-05-19T17:56:34.338Z,5.00
2023-05-19T17:59:02.134Z,4.72
2023-05-19T18:01:33.416Z,4.90
2023-05-19T18:04:16.155Z,7.38
2023-05-19T18:06:48.275Z,5.80
2023-05-19T18:09:22.961Z,4.80
2023-05-19T18:11:52.834Z,8.43
2023-05-19T18:14:25.289Z,12.50
2023-05-19T18:16:54.767Z,6.80
2023-05-19T18:19:25.843Z,6.70
2023-05-19T18:21:58.764Z,5.03
2023-05-19T18:24:29.695Z,5.00
2023-05-19T18:26:57.429Z,4.43
2023-05-19T18:29:26.587Z,4.10
2023-05-19T18:31:54.156Z,3.77
2023-05-19T18:34:24.516Z,3.83
2023-05-19T18:36:53.955Z,3.63
2023-05-19T18:39:21.538Z,4.03
2023-05-19T18:41:50.927Z,3.90
2023-05-19T18:44:18.645Z,3.57
2023-05-19T18:46:50.469Z,3.77
2023-05-19T18:49:19.087Z,4.27
2023-05-19T18:51:48.883Z,3.30
2023-05-19T18:54:16.565Z,3.90
2023-05-19T18:56:44.553Z,4.00
2023-05-19T18:59:14.100Z,3.90
2023-05-19T19:01:45.374Z,3.67
2023-05-19T19:04:14.915Z,3.93
2023-05-19T19:06:45.831Z,4.13
2023-05-19T19:09:15.236Z,4.17
2023-05-19T19:11:47.514Z,3.67
2023-05-19T19:14:19.516Z,4.30
2023-05-19T19:16:48.602Z,4.00
2023-05-19T19:19:24.011Z,4.23
2023-05-19T19:21:54.367Z,4.47
2023-05-19T19:24:43.195Z,3.97
2023-05-19T19:27:18.989Z,4.13
2023-05-19T19:29:51.822Z,4.83
2023-05-19T19:32:24.812Z,3.93
2023-05-19T19:34:55.273Z,4.30
2023-05-19T19:37:23.008Z,4.70
2023-05-19T19:39:52.230Z,4.93
2023-05-19T19:42:22.361Z,4.43
2023-05-19T19:44:54.550Z,4.87
2023-05-19T19:47:22.487Z,5.03
2023-05-19T19:49:56.070Z,4.33
2023-05-19T19:52:26.123Z,4.47
2023-05-19T19:54:54.264Z,4.60
2023-05-19T19:57:24.219Z,4.97
2023-05-19T19:59:55.240Z,4.63
2023-05-19T20:02:27.908Z,4.73
2023-05-19T20:04:55.582Z,4.43
2023-05-19T20:07:23.397Z,4.53
2023-05-19T20:09:59.006Z,4.70
2023-05-19T20:12:27.664Z,4.40
2023-05-19T20:14:56.343Z,4.47
2023-05-19T20:17:23.874Z,5.10
2023-05-19T20:19:53.742Z,4.63
2023-05-19T20:22:21.392Z,4.53
2023-05-19T20:24:49.300Z,4.10
2023-05-19T20:27:17.825Z,4.80
2023-05-19T20:29:47.076Z,4.30
2023-05-19T20:32:14.524Z,4.87
2023-05-19T20:34:43.396Z,4.60
2023-05-19T20:37:13.814Z,4.70
2023-05-19T20:39:41.457Z,4.50
2023-05-19T20:42:09.736Z,4.63
2023-05-19T20:44:37.712Z,4.07
2023-05-19T20:47:08.103Z,4.57
2023-05-19T20:49:36.119Z,4.27
2023-05-19T20:52:03.880Z,4.40
2023-05-19T20:54:31.381Z,4.40
2023-05-19T20:56:59.457Z,4.90
2023-05-19T20:59:28.002Z,4.40
2023-05-19T21:01:57.485Z,4.30
2023-05-19T21:04:28.716Z,4.47
2023-05-19T21:06:57.140Z,4.77
2023-05-19T21:09:25.828Z,4.93
2023-05-19T21:11:53.724Z,4.63
2023-05-19T21:14:23.629Z,5.00
2023-05-19T21:16:54.401Z,4.73
2023-05-19T21:19:23.001Z,5.47
2023-05-19T21:21:51.213Z,5.40
2023-05-19T21:24:18.792Z,5.43
2023-05-19T21:26:46.361Z,5.33
2023-05-19T21:29:13.966Z,5.80
2023-05-19T21:31:41.542Z,5.23
2023-05-19T21:34:09.202Z,5.40
2023-05-19T21:36:38.015Z,5.67
2023-05-19T21:39:07.266Z,5.47
2023-05-19T21:41:35.571Z,5.10
2023-05-19T21:44:03.560Z,5.20
2023-05-19T21:46:31.516Z,5.03
2023-05-19T21:48:59.169Z,5.10
2023-05-19T21:51:27.977Z,4.93
2023-05-19T21:53:55.749Z,4.83
2023-05-19T21:56:23.389Z,5.30
2023-05-19T21:58:51.027Z,4.90
2023-05-19T22:01:18.986Z,4.90
2023-05-19T22:03:46.666Z,4.80
2023-05-19T22:06:14.361Z,4.50
2023-05-19T22:08:42.024Z,5.23
2023-05-19T22:11:09.504Z,4.67
2023-05-19T22:13:41.141Z,4.80
2023-05-19T22:16:09.042Z,4.70
2023-05-19T22:18:36.624Z,4.70
2023-05-19T22:21:04.372Z,4.70
2023-05-19T22:23:32.291Z,5.10
2023-05-19T22:25:59.819Z,4.97
2023-05-19T22:28:27.498Z,4.57
2023-05-19T22:30:55.023Z,5.10
2023-05-19T22:33:22.686Z,4.77
2023-05-19T22:35:50.699Z,4.87
2023-05-19T22:38:18.202Z,4.53
2023-05-19T22:40:45.966Z,5.43
2023-05-19T22:43:13.563Z,5.17
2023-05-19T22:45:41.641Z,4.93
2023-05-19T22:48:09.321Z,5.63
2023-05-19T22:50:36.893Z,5.70
2023-05-19T22:53:04.374Z,5.70
2023-05-19T22:55:32.424Z,6.00
2023-05-19T22:58:00.172Z,6.13
2023-05-19T23:00:27.732Z,6.10
2023-05-19T23:02:55.425Z,5.57
2023-05-19T23:05:23.031Z,5.70
2023-05-19T23:07:50.516Z,6.10
2023-05-19T23:10:18.154Z,5.30
2023-05-19T23:12:45.646Z,5.60
2023-05-19T23:15:14.346Z,5.97
2023-05-19T23:17:41.826Z,5.90
2023-05-19T23:20:10.175Z,5.80
2023-05-19T23:22:37.647Z,5.73
2023-05-19T23:25:07.704Z,6.27
2023-05-19T23:27:36.437Z,6.23
2023-05-19T23:30:05.090Z,5.73
2023-05-19T23:32:33.034Z,5.90
2023-05-19T23:35:13.854Z,6.03
2023-05-19T23:37:41.572Z,5.93
2023-05-19T23:40:09.708Z,6.10
2023-05-19T23:42:37.303Z,6.23
2023-05-19T23:45:05.625Z,6.33
2023-05-19T23:47:33.181Z,6.07
2023-05-19T23:50:00.702Z,5.77
2023-05-19T23:52:28.214Z,5.60
2023-05-19T23:54:55.784Z,5.57
2023-05-19T23:57:23.247Z,6.07
2023-05-19T23:59:50.725Z,6.07
